PWSweather.com
Personal Weather Stations
Station Observations
KFLCAPE1
Cape Harbour, Cape Coral, FL 33914

Cape HarbourCape Coral, FL 33914

Lat: 26.55, Lon: -82.01

Elevation: 13

Station Type: Davis Vantage Pro2

http://www.capeweather.com

Latest ConditionsUpdated 5:45:30 PM EDT Sunday, May 27, 2018
Currently Today's Max Today's Min Today's Average
Temperature 82.8°F28.2°C 83.8°F28.8°C 71.2°F21.8°C 77.0°F25.0°C
Dew Point 76.8°F24.9°C 78.1°F25.6°C 69.7°F20.9°C 74.0°F23.3°C
Winds 1.0 mph SSE1.6 kmh SSE 18.0 mph SE29.0 kmh SE - 5.8 mph 9.3 kmh
Wind Gusts 13.0 mph20.9 kmh 24.0 mph38.6 kmh - -
Humidity 82% 96% 80% 91%
Pressure 29.75 in1007.5 mb 29.80 in1009.1 mb 29.67 in1004.7 mb -
Hour Temp Dew Point Humidity Winds Wind Gusts Pressure Precip Precip Rate Daily Precip Total
05:45 PM 82.8°F28.2°C 76.8°F24.9°C 82% 1.0 mph SSE1.6 kmh SSE 13.0 mph20.9 kmh 29.75 in1007.5 mb 0.00 in0.0 mm 0.00 in0.0 mm 0.43 in10.9 mm
05:40 PM 82.5°F28.1°C 76.8°F24.9°C 83% 2.0 mph SSW3.2 kmh SSW 12.0 mph19.3 kmh 29.75 in1007.5 mb 0.00 in0.0 mm 0.00 in0.0 mm 0.43 in10.9 mm
05:35 PM 82.2°F27.9°C 76.5°F24.7°C 83% 4.0 mph S6.4 kmh S 11.0 mph17.7 kmh 29.75 in1007.5 mb 0.00 in0.0 mm 0.00 in0.0 mm 0.43 in10.9 mm
05:30 PM 82.1°F27.8°C 76.1°F24.5°C 82% 10.0 mph S16.1 kmh S 15.0 mph24.1 kmh 29.75 in1007.5 mb 0.00 in0.0 mm 0.00 in0.0 mm 0.43 in10.9 mm
05:25 PM 82.7°F28.2°C 76.7°F24.8°C 82% 7.0 mph SSW11.3 kmh SSW 18.0 mph29.0 kmh 29.75 in1007.5 mb 0.00 in0.0 mm 0.00 in0.0 mm 0.43 in10.9 mm
05:20 PM 83.1°F28.4°C 76.3°F24.6°C 80% 6.0 mph SW9.7 kmh SW 15.0 mph24.1 kmh 29.75 in1007.5 mb 0.00 in0.0 mm 0.00 in0.0 mm 0.43 in10.9 mm
05:15 PM 82.9°F28.3°C 76.8°F24.9°C 82% 9.0 mph SSE14.5 kmh SSE 14.0 mph22.5 kmh 29.74 in1007.1 mb 0.00 in0.0 mm 0.00 in0.0 mm 0.43 in10.9 mm
05:10 PM 82.7°F28.2°C 77.0°F25.0°C 83% 10.0 mph S16.1 kmh S 16.0 mph25.7 kmh 29.74 in1007.1 mb 0.00 in0.0 mm 0.00 in0.0 mm 0.43 in10.9 mm
05:05 PM 82.5°F28.1°C 76.8°F24.9°C 83% 4.0 mph SE6.4 kmh SE 15.0 mph24.1 kmh 29.74 in1007.1 mb 0.00 in0.0 mm 0.00 in0.0 mm 0.43 in10.9 mm
05:00 PM 82.0°F27.8°C 76.3°F24.6°C 83% 6.0 mph S9.7 kmh S 13.0 mph20.9 kmh 29.74 in1007.1 mb 0.00 in0.0 mm 0.00 in0.0 mm 0.43 in10.9 mm
04:55 PM 82.4°F28.0°C 76.7°F24.8°C 83% 4.0 mph S6.4 kmh S 11.0 mph17.7 kmh 29.74 in1007.1 mb 0.00 in0.0 mm 0.00 in0.0 mm 0.43 in10.9 mm
04:50 PM 82.4°F28.0°C 76.7°F24.8°C 83% 6.0 mph S9.7 kmh S 13.0 mph20.9 kmh 29.74 in1007.1 mb 0.00 in0.0 mm 0.00 in0.0 mm 0.43 in10.9 mm
04:45 PM 82.4°F28.0°C 77.1°F25.1°C 84% 6.0 mph S9.7 kmh S 13.0 mph20.9 kmh 29.74 in1007.1 mb 0.00 in0.0 mm 0.00 in0.0 mm 0.43 in10.9 mm
04:40 PM 82.1°F27.8°C 76.4°F24.7°C 83% 9.0 mph SSW14.5 kmh SSW 15.0 mph24.1 kmh 29.73 in1006.8 mb 0.00 in0.0 mm 0.00 in0.0 mm 0.43 in10.9 mm
04:35 PM 82.3°F27.9°C 76.6°F24.8°C 83% 11.0 mph S17.7 kmh S 14.0 mph22.5 kmh 29.73 in1006.8 mb 0.00 in0.0 mm 0.00 in0.0 mm 0.43 in10.9 mm
04:30 PM 82.7°F28.2°C 77.0°F25.0°C 83% 6.0 mph S9.7 kmh S 16.0 mph25.7 kmh 29.73 in1006.8 mb 0.00 in0.0 mm 0.00 in0.0 mm 0.43 in10.9 mm
04:25 PM 82.1°F27.8°C 76.8°F24.9°C 84% 7.0 mph S11.3 kmh S 14.0 mph22.5 kmh 29.73 in1006.8 mb 0.00 in0.0 mm 0.00 in0.0 mm 0.43 in10.9 mm
04:20 PM 82.1°F27.8°C 76.8°F24.9°C 84% 12.0 mph S19.3 kmh S 19.0 mph30.6 kmh 29.74 in1007.1 mb 0.00 in0.0 mm 0.00 in0.0 mm 0.43 in10.9 mm
04:15 PM 81.9°F27.7°C 76.6°F24.8°C 84% 16.0 mph SSW25.7 kmh SSW 16.0 mph25.7 kmh 29.74 in1007.1 mb 0.00 in0.0 mm 0.00 in0.0 mm 0.43 in10.9 mm
04:10 PM 81.8°F27.7°C 76.5°F24.7°C 84% 10.0 mph SSW16.1 kmh SSW 20.0 mph32.2 kmh 29.74 in1007.1 mb 0.00 in0.0 mm 0.00 in0.0 mm 0.43 in10.9 mm
04:05 PM 81.9°F27.7°C 76.2°F24.6°C 83% 8.0 mph S12.9 kmh S 13.0 mph20.9 kmh 29.74 in1007.1 mb 0.00 in0.0 mm 0.00 in0.0 mm 0.43 in10.9 mm
04:00 PM 81.9°F27.7°C 76.2°F24.6°C 83% 2.0 mph S3.2 kmh S 17.0 mph27.4 kmh 29.74 in1007.1 mb 0.00 in0.0 mm 0.00 in0.0 mm 0.43 in10.9 mm
03:55 PM 82.8°F28.2°C 76.8°F24.9°C 82% 5.0 mph SSW8.0 kmh SSW 14.0 mph22.5 kmh 29.74 in1007.1 mb 0.00 in0.0 mm 0.00 in0.0 mm 0.43 in10.9 mm
03:50 PM 82.7°F28.2°C 77.4°F25.2°C 84% 11.0 mph SW17.7 kmh SW 16.0 mph25.7 kmh 29.74 in1007.1 mb 0.00 in0.0 mm 0.00 in0.0 mm 0.43 in10.9 mm
03:45 PM 82.1°F27.8°C 77.5°F25.3°C 86% 4.0 mph S6.4 kmh S 14.0 mph22.5 kmh 29.74 in1007.1 mb 0.00 in0.0 mm 0.00 in0.0 mm 0.43 in10.9 mm
03:40 PM 81.8°F27.7°C 76.9°F24.9°C 85% 5.0 mph SSE8.0 kmh SSE 14.0 mph22.5 kmh 29.74 in1007.1 mb 0.00 in0.0 mm 0.00 in0.0 mm 0.43 in10.9 mm
03:35 PM 82.3°F27.9°C 77.3°F25.2°C 85% 9.0 mph SSW14.5 kmh SSW 14.0 mph22.5 kmh 29.73 in1006.8 mb 0.00 in0.0 mm 0.00 in0.0 mm 0.43 in10.9 mm
03:30 PM 82.3°F27.9°C 77.0°F25.0°C 84% 9.0 mph SSW14.5 kmh SSW 16.0 mph25.7 kmh 29.73 in1006.8 mb 0.00 in0.0 mm 0.00 in0.0 mm 0.43 in10.9 mm
03:25 PM 82.3°F27.9°C 77.0°F25.0°C 84% 9.0 mph S14.5 kmh S 14.0 mph22.5 kmh 29.73 in1006.8 mb 0.00 in0.0 mm 0.00 in0.0 mm 0.43 in10.9 mm
03:20 PM 82.2°F27.9°C 77.2°F25.1°C 85% 5.0 mph S8.0 kmh S 14.0 mph22.5 kmh 29.73 in1006.8 mb 0.00 in0.0 mm 0.00 in0.0 mm 0.43 in10.9 mm
03:15 PM 81.6°F27.6°C 77.4°F25.2°C 87% 7.0 mph SSW11.3 kmh SSW 13.0 mph20.9 kmh 29.73 in1006.8 mb 0.00 in0.0 mm 0.00 in0.0 mm 0.43 in10.9 mm
03:10 PM 81.4°F27.4°C 76.8°F24.9°C 86% 7.0 mph SSE11.3 kmh SSE 16.0 mph25.7 kmh 29.73 in1006.8 mb 0.00 in0.0 mm 0.00 in0.0 mm 0.43 in10.9 mm
03:05 PM 81.4°F27.4°C 76.8°F24.9°C 86% 9.0 mph S14.5 kmh S 14.0 mph22.5 kmh 29.73 in1006.8 mb 0.00 in0.0 mm 0.00 in0.0 mm 0.43 in10.9 mm
03:00 PM 80.7°F27.1°C 77.2°F25.1°C 89% 11.0 mph SE17.7 kmh SE 17.0 mph27.4 kmh 29.73 in1006.8 mb 0.00 in0.0 mm 0.00 in0.0 mm 0.43 in10.9 mm
02:55 PM 80.6°F27.0°C 77.4°F25.2°C 90% 5.0 mph S8.0 kmh S 14.0 mph22.5 kmh 29.74 in1007.1 mb 0.00 in0.0 mm 0.00 in0.0 mm 0.43 in10.9 mm
02:50 PM 81.2°F27.3°C 76.6°F24.8°C 86% 6.0 mph SSE9.7 kmh SSE 14.0 mph22.5 kmh 29.73 in1006.8 mb 0.00 in0.0 mm 0.00 in0.0 mm 0.43 in10.9 mm
02:45 PM 82.4°F28.0°C 77.1°F25.1°C 84% 7.0 mph S11.3 kmh S 13.0 mph20.9 kmh 29.74 in1007.1 mb 0.00 in0.0 mm 0.00 in0.0 mm 0.43 in10.9 mm
02:40 PM 81.7°F27.6°C 76.4°F24.7°C 84% 7.0 mph SSW11.3 kmh SSW 17.0 mph27.4 kmh 29.74 in1007.1 mb 0.00 in0.0 mm 0.00 in0.0 mm 0.43 in10.9 mm
02:35 PM 81.3°F27.4°C 76.0°F24.4°C 84% 10.0 mph SSW16.1 kmh SSW 14.0 mph22.5 kmh 29.74 in1007.1 mb 0.00 in0.0 mm 0.00 in0.0 mm 0.43 in10.9 mm
02:30 PM 81.0°F27.2°C 75.7°F24.3°C 84% 8.0 mph S12.9 kmh S 16.0 mph25.7 kmh 29.74 in1007.1 mb 0.00 in0.0 mm 0.00 in0.0 mm 0.43 in10.9 mm
02:25 PM 81.4°F27.4°C 76.1°F24.5°C 84% 7.0 mph SSW11.3 kmh SSW 18.0 mph29.0 kmh 29.74 in1007.1 mb 0.00 in0.0 mm 0.00 in0.0 mm 0.43 in10.9 mm
02:20 PM 82.4°F28.0°C 76.4°F24.7°C 82% 11.0 mph SSE17.7 kmh SSE 15.0 mph24.1 kmh 29.74 in1007.1 mb 0.00 in0.0 mm 0.00 in0.0 mm 0.43 in10.9 mm
02:15 PM 83.4°F28.6°C 77.0°F25.0°C 81% 10.0 mph S16.1 kmh S 13.0 mph20.9 kmh 29.74 in1007.1 mb 0.00 in0.0 mm 0.00 in0.0 mm 0.43 in10.9 mm
02:10 PM 83.2°F28.4°C 76.8°F24.9°C 81% 5.0 mph S8.0 kmh S 22.0 mph35.4 kmh 29.74 in1007.1 mb 0.00 in0.0 mm 0.00 in0.0 mm 0.43 in10.9 mm
02:05 PM 83.5°F28.6°C 77.1°F25.1°C 81% 6.0 mph SSE9.7 kmh SSE 17.0 mph27.4 kmh 29.74 in1007.1 mb 0.00 in0.0 mm 0.00 in0.0 mm 0.43 in10.9 mm
02:00 PM 83.0°F28.3°C 76.9°F24.9°C 82% 15.0 mph S24.1 kmh S 15.0 mph24.1 kmh 29.75 in1007.5 mb 0.00 in0.0 mm 0.00 in0.0 mm 0.43 in10.9 mm
01:55 PM 82.2°F27.9°C 76.5°F24.7°C 83% 10.0 mph SSE16.1 kmh SSE 18.0 mph29.0 kmh 29.75 in1007.5 mb 0.00 in0.0 mm 0.00 in0.0 mm 0.43 in10.9 mm
01:50 PM 82.9°F28.3°C 76.8°F24.9°C 82% 13.0 mph S20.9 kmh S 17.0 mph27.4 kmh 29.75 in1007.5 mb 0.00 in0.0 mm 0.00 in0.0 mm 0.43 in10.9 mm
01:45 PM 83.0°F28.3°C 76.6°F24.8°C 81% 8.0 mph SSE12.9 kmh SSE 18.0 mph29.0 kmh 29.75 in1007.5 mb 0.00 in0.0 mm 0.00 in0.0 mm 0.43 in10.9 mm
01:40 PM 83.6°F28.7°C 77.2°F25.1°C 81% 4.0 mph SSE6.4 kmh SSE 17.0 mph27.4 kmh 29.74 in1007.1 mb 0.00 in0.0 mm 0.00 in0.0 mm 0.43 in10.9 mm
01:35 PM 83.8°F28.8°C 78.1°F25.6°C 83% 5.0 mph S8.0 kmh S 12.0 mph19.3 kmh 29.74 in1007.1 mb 0.00 in0.0 mm 0.00 in0.0 mm 0.43 in10.9 mm
01:30 PM 83.2°F28.4°C 77.1°F25.1°C 82% 2.0 mph SSE3.2 kmh SSE 22.0 mph35.4 kmh 29.74 in1007.1 mb 0.00 in0.0 mm 0.00 in0.0 mm 0.43 in10.9 mm
01:25 PM 82.4°F28.0°C 76.7°F24.8°C 83% 6.0 mph SSE9.7 kmh SSE 14.0 mph22.5 kmh 29.74 in1007.1 mb 0.00 in0.0 mm 0.00 in0.0 mm 0.43 in10.9 mm
01:20 PM 81.9°F27.7°C 76.2°F24.6°C 83% 5.0 mph S8.0 kmh S 18.0 mph29.0 kmh 29.74 in1007.1 mb 0.00 in0.0 mm 0.00 in0.0 mm 0.43 in10.9 mm
01:15 PM 82.2°F27.9°C 76.5°F24.7°C 83% 6.0 mph SSE9.7 kmh SSE 17.0 mph27.4 kmh 29.74 in1007.1 mb 0.00 in0.0 mm 0.00 in0.0 mm 0.43 in10.9 mm
01:10 PM 82.5°F28.1°C 76.8°F24.9°C 83% 8.0 mph SE12.9 kmh SE 17.0 mph27.4 kmh 29.74 in1007.1 mb 0.00 in0.0 mm 0.00 in0.0 mm 0.43 in10.9 mm
01:05 PM 82.8°F28.2°C 77.1°F25.1°C 83% 5.0 mph SE8.0 kmh SE 19.0 mph30.6 kmh 29.74 in1007.1 mb 0.00 in0.0 mm 0.00 in0.0 mm 0.43 in10.9 mm
01:00 PM 82.2°F27.9°C 76.5°F24.7°C 83% 5.0 mph S8.0 kmh S 13.0 mph20.9 kmh 29.74 in1007.1 mb 0.00 in0.0 mm 0.00 in0.0 mm 0.43 in10.9 mm
12:55 PM 82.4°F28.0°C 76.7°F24.8°C 83% 7.0 mph SSE11.3 kmh SSE 15.0 mph24.1 kmh 29.74 in1007.1 mb 0.00 in0.0 mm 0.00 in0.0 mm 0.43 in10.9 mm
12:50 PM 82.9°F28.3°C 77.2°F25.1°C 83% 7.0 mph S11.3 kmh S 12.0 mph19.3 kmh 29.74 in1007.1 mb 0.01 in0.3 mm 0.00 in0.0 mm 0.43 in10.9 mm
12:45 PM 82.5°F28.1°C 76.5°F24.7°C 82% 5.0 mph S8.0 kmh S 20.0 mph32.2 kmh 29.74 in1007.1 mb 0.01 in0.3 mm 0.00 in0.0 mm 0.43 in10.9 mm
12:40 PM 83.0°F28.3°C 77.3°F25.2°C 83% 6.0 mph SSW9.7 kmh SSW 12.0 mph19.3 kmh 29.74 in1007.1 mb 0.01 in0.3 mm 0.00 in0.0 mm 0.43 in10.9 mm
12:35 PM 82.7°F28.2°C 77.4°F25.2°C 84% 5.0 mph S8.0 kmh S 13.0 mph20.9 kmh 29.74 in1007.1 mb 0.01 in0.3 mm 0.00 in0.0 mm 0.43 in10.9 mm
12:30 PM 82.4°F28.0°C 77.8°F25.4°C 86% 1.0 mph S1.6 kmh S 9.0 mph14.5 kmh 29.74 in1007.1 mb 0.01 in0.3 mm 0.00 in0.0 mm 0.43 in10.9 mm
12:25 PM 81.7°F27.6°C 76.8°F24.9°C 85% 6.0 mph SSW9.7 kmh SSW 16.0 mph25.7 kmh 29.74 in1007.1 mb 0.01 in0.3 mm 0.00 in0.0 mm 0.43 in10.9 mm
12:20 PM 81.9°F27.7°C 76.6°F24.8°C 84% 7.0 mph S11.3 kmh S 20.0 mph32.2 kmh 29.74 in1007.1 mb 0.01 in0.3 mm 0.00 in0.0 mm 0.43 in10.9 mm
12:15 PM 82.0°F27.8°C 75.6°F24.2°C 81% 12.0 mph SE19.3 kmh SE 22.0 mph35.4 kmh 29.74 in1007.1 mb 0.01 in0.3 mm 0.00 in0.0 mm 0.43 in10.9 mm
12:10 PM 81.9°F27.7°C 76.2°F24.6°C 83% 7.0 mph SSE11.3 kmh SSE 15.0 mph24.1 kmh 29.74 in1007.1 mb 0.01 in0.3 mm 0.00 in0.0 mm 0.43 in10.9 mm
12:05 PM 82.2°F27.9°C 76.2°F24.6°C 82% 9.0 mph SE14.5 kmh SE 14.0 mph22.5 kmh 29.74 in1007.1 mb 0.01 in0.3 mm 0.00 in0.0 mm 0.43 in10.9 mm
12:00 PM 82.3°F27.9°C 77.3°F25.2°C 85% 4.0 mph SSE6.4 kmh SSE 21.0 mph33.8 kmh 29.74 in1007.1 mb 0.01 in0.3 mm 0.00 in0.0 mm 0.43 in10.9 mm
11:55 AM 81.7°F27.6°C 76.4°F24.7°C 84% 9.0 mph SSE14.5 kmh SSE 12.0 mph19.3 kmh 29.74 in1007.1 mb 0.01 in0.3 mm 0.00 in0.0 mm 0.43 in10.9 mm
11:50 AM 81.2°F27.3°C 75.9°F24.4°C 84% 7.0 mph S11.3 kmh S 16.0 mph25.7 kmh 29.74 in1007.1 mb 0.01 in0.3 mm 0.12 in3.0 mm 0.43 in10.9 mm
11:45 AM 81.4°F27.4°C 76.5°F24.7°C 85% 6.0 mph S9.7 kmh S 19.0 mph30.6 kmh 29.74 in1007.1 mb 0.00 in0.0 mm 0.00 in0.0 mm 0.42 in10.7 mm
11:40 AM 82.1°F27.8°C 76.4°F24.7°C 83% 5.0 mph S8.0 kmh S 17.0 mph27.4 kmh 29.74 in1007.1 mb 0.00 in0.0 mm 0.00 in0.0 mm 0.42 in10.7 mm
11:35 AM 82.1°F27.8°C 77.5°F25.3°C 86% 10.0 mph SSE16.1 kmh SSE 13.0 mph20.9 kmh 29.74 in1007.1 mb 0.00 in0.0 mm 0.00 in0.0 mm 0.42 in10.7 mm
11:30 AM 80.9°F27.2°C 76.7°F24.8°C 87% 6.0 mph SSE9.7 kmh SSE 17.0 mph27.4 kmh 29.74 in1007.1 mb 0.00 in0.0 mm 0.00 in0.0 mm 0.42 in10.7 mm
11:25 AM 80.4°F26.9°C 76.2°F24.6°C 87% 4.0 mph S6.4 kmh S 15.0 mph24.1 kmh 29.73 in1006.8 mb 0.00 in0.0 mm 0.00 in0.0 mm 0.42 in10.7 mm
11:20 AM 80.1°F26.7°C 76.2°F24.6°C 88% 11.0 mph S17.7 kmh S 16.0 mph25.7 kmh 29.73 in1006.8 mb 0.00 in0.0 mm 0.00 in0.0 mm 0.42 in10.7 mm
11:15 AM 79.7°F26.5°C 76.2°F24.6°C 89% 5.0 mph SE8.0 kmh SE 17.0 mph27.4 kmh 29.73 in1006.8 mb 0.00 in0.0 mm 0.00 in0.0 mm 0.42 in10.7 mm
11:10 AM 79.3°F26.3°C 75.8°F24.3°C 89% 4.0 mph S6.4 kmh S 17.0 mph27.4 kmh 29.73 in1006.8 mb 0.00 in0.0 mm 0.00 in0.0 mm 0.42 in10.7 mm
11:05 AM 78.1°F25.6°C 74.9°F23.8°C 90% 6.0 mph S9.7 kmh S 18.0 mph29.0 kmh 29.73 in1006.8 mb 0.00 in0.0 mm 0.00 in0.0 mm 0.42 in10.7 mm
11:00 AM 77.7°F25.4°C 75.2°F24.0°C 92% Calm Calm 17.0 mph27.4 kmh 29.73 in1006.8 mb 0.02 in0.5 mm 0.00 in0.0 mm 0.42 in10.7 mm
10:55 AM 77.4°F25.2°C 74.9°F23.8°C 92% 6.0 mph S9.7 kmh S 16.0 mph25.7 kmh 29.73 in1006.8 mb 0.02 in0.5 mm 0.00 in0.0 mm 0.42 in10.7 mm
10:50 AM 77.0°F25.0°C 74.5°F23.6°C 92% 10.0 mph S16.1 kmh S 16.0 mph25.7 kmh 29.73 in1006.8 mb 0.02 in0.5 mm 0.00 in0.0 mm 0.42 in10.7 mm
10:45 AM 76.9°F24.9°C 74.4°F23.6°C 92% 6.0 mph SSE9.7 kmh SSE 13.0 mph20.9 kmh 29.73 in1006.8 mb 0.02 in0.5 mm 0.00 in0.0 mm 0.42 in10.7 mm
10:40 AM 77.1°F25.1°C 74.9°F23.8°C 93% 6.0 mph SSE9.7 kmh SSE 16.0 mph25.7 kmh 29.73 in1006.8 mb 0.06 in1.5 mm 0.00 in0.0 mm 0.42 in10.7 mm
10:35 AM 77.0°F25.0°C 74.8°F23.8°C 93% 9.0 mph SSE14.5 kmh SSE 15.0 mph24.1 kmh 29.73 in1006.8 mb 0.06 in1.5 mm 0.00 in0.0 mm 0.42 in10.7 mm
10:30 AM 76.9°F24.9°C 74.7°F23.7°C 93% 7.0 mph ESE11.3 kmh ESE 14.0 mph22.5 kmh 29.72 in1006.4 mb 0.08 in2.0 mm 0.00 in0.0 mm 0.42 in10.7 mm
10:25 AM 76.9°F24.9°C 74.7°F23.7°C 93% 11.0 mph SSE17.7 kmh SSE 16.0 mph25.7 kmh 29.73 in1006.8 mb 0.08 in2.0 mm 0.00 in0.0 mm 0.42 in10.7 mm
10:20 AM 76.9°F24.9°C 75.1°F23.9°C 94% 4.0 mph SE6.4 kmh SE 11.0 mph17.7 kmh 29.72 in1006.4 mb 0.12 in3.0 mm 0.00 in0.0 mm 0.42 in10.7 mm
10:15 AM 76.5°F24.7°C 75.0°F23.9°C 95% 6.0 mph SE9.7 kmh SE 15.0 mph24.1 kmh 29.71 in1006.1 mb 0.14 in3.6 mm 0.00 in0.0 mm 0.42 in10.7 mm
10:10 AM 75.7°F24.3°C 74.5°F23.6°C 96% 2.0 mph SE3.2 kmh SE 13.0 mph20.9 kmh 29.71 in1006.1 mb 0.14 in3.6 mm 0.00 in0.0 mm 0.42 in10.7 mm
10:05 AM 75.1°F23.9°C 73.9°F23.3°C 96% 4.0 mph SE6.4 kmh SE 10.0 mph16.1 kmh 29.71 in1006.1 mb 0.14 in3.6 mm 0.00 in0.0 mm 0.42 in10.7 mm
10:00 AM 74.9°F23.8°C 73.4°F23.0°C 95% Calm Calm 9.0 mph14.5 kmh 29.71 in1006.1 mb 0.14 in3.6 mm 0.00 in0.0 mm 0.42 in10.7 mm
09:55 AM 74.9°F23.8°C 73.7°F23.2°C 96% 5.0 mph SE8.0 kmh SE 14.0 mph22.5 kmh 29.71 in1006.1 mb 0.14 in3.6 mm 0.00 in0.0 mm 0.42 in10.7 mm
09:50 AM 74.7°F23.7°C 73.5°F23.1°C 96% 1.0 mph SE1.6 kmh SE 16.0 mph25.7 kmh 29.71 in1006.1 mb 0.16 in4.1 mm 0.00 in0.0 mm 0.42 in10.7 mm
09:45 AM 74.7°F23.7°C 73.5°F23.1°C 96% 9.0 mph ESE14.5 kmh ESE 14.0 mph22.5 kmh 29.70 in1005.8 mb 0.24 in6.1 mm 0.00 in0.0 mm 0.42 in10.7 mm
09:40 AM 74.7°F23.7°C 73.5°F23.1°C 96% 4.0 mph SE6.4 kmh SE 15.0 mph24.1 kmh 29.71 in1006.1 mb 0.28 in7.1 mm 0.12 in3.0 mm 0.42 in10.7 mm
09:35 AM 74.5°F23.6°C 73.3°F22.9°C 96% 9.0 mph S14.5 kmh S 13.0 mph20.9 kmh 29.71 in1006.1 mb 0.27 in6.9 mm 0.24 in6.1 mm 0.41 in10.4 mm
09:30 AM 74.4°F23.6°C 73.2°F22.9°C 96% 1.0 mph E1.6 kmh E 12.0 mph19.3 kmh 29.71 in1006.1 mb 0.25 in6.4 mm 0.00 in0.0 mm 0.39 in9.9 mm
09:25 AM 74.3°F23.5°C 73.1°F22.8°C 96% 5.0 mph SE8.0 kmh SE 14.0 mph22.5 kmh 29.71 in1006.1 mb 0.26 in6.6 mm 0.00 in0.0 mm 0.39 in9.9 mm
09:20 AM 74.4°F23.6°C 73.2°F22.9°C 96% 2.0 mph ESE3.2 kmh ESE 10.0 mph16.1 kmh 29.70 in1005.8 mb 0.29 in7.4 mm 0.48 in12.2 mm 0.39 in9.9 mm
09:15 AM 74.5°F23.6°C 73.3°F22.9°C 96% 2.0 mph SSE3.2 kmh SSE 10.0 mph16.1 kmh 29.72 in1006.4 mb 0.25 in6.4 mm 0.12 in3.0 mm 0.35 in8.9 mm
09:10 AM 74.5°F23.6°C 73.3°F22.9°C 96% 5.0 mph SE8.0 kmh SE 15.0 mph24.1 kmh 29.71 in1006.1 mb 0.24 in6.1 mm 0.00 in0.0 mm 0.34 in8.6 mm
09:05 AM 74.4°F23.6°C 73.2°F22.9°C 96% 5.0 mph SE8.0 kmh SE 14.0 mph22.5 kmh 29.71 in1006.1 mb 0.24 in6.1 mm 0.00 in0.0 mm 0.34 in8.6 mm
09:00 AM 74.3°F23.5°C 73.1°F22.8°C 96% 18.0 mph SE29.0 kmh SE 24.0 mph38.6 kmh 29.70 in1005.8 mb 0.24 in6.1 mm 0.01 in0.3 mm 0.34 in8.6 mm
08:55 AM 74.2°F23.4°C 73.0°F22.8°C 96% 11.0 mph SE17.7 kmh SE 18.0 mph29.0 kmh 29.69 in1005.4 mb 0.23 in5.8 mm 0.12 in3.0 mm 0.33 in8.4 mm
08:50 AM 74.3°F23.5°C 73.1°F22.8°C 96% 6.0 mph E9.7 kmh E 16.0 mph25.7 kmh 29.69 in1005.4 mb 0.22 in5.6 mm 0.72 in18.3 mm 0.32 in8.1 mm
08:45 AM 74.3°F23.5°C 73.1°F22.8°C 96% 7.0 mph SSE11.3 kmh SSE 15.0 mph24.1 kmh 29.70 in1005.8 mb 0.16 in4.1 mm 0.60 in15.2 mm 0.26 in6.6 mm
08:40 AM 74.3°F23.5°C 73.1°F22.8°C 96% 8.0 mph ESE12.9 kmh ESE 20.0 mph32.2 kmh 29.70 in1005.8 mb 0.11 in2.8 mm 0.72 in18.3 mm 0.21 in5.3 mm
08:35 AM 74.4°F23.6°C 72.9°F22.7°C 95% 7.0 mph ESE11.3 kmh ESE 10.0 mph16.1 kmh 29.70 in1005.8 mb 0.05 in1.3 mm 0.00 in0.0 mm 0.15 in3.8 mm
08:30 AM 74.4°F23.6°C 72.9°F22.7°C 95% 3.0 mph ESE4.8 kmh ESE 10.0 mph16.1 kmh 29.70 in1005.8 mb 0.05 in1.3 mm 0.00 in0.0 mm 0.15 in3.8 mm
08:25 AM 74.5°F23.6°C 73.0°F22.8°C 95% 2.0 mph SE3.2 kmh SE 11.0 mph17.7 kmh 29.69 in1005.4 mb 0.05 in1.3 mm 0.24 in6.1 mm 0.15 in3.8 mm
08:20 AM 74.6°F23.7°C 73.1°F22.8°C 95% Calm Calm 11.0 mph17.7 kmh 29.70 in1005.8 mb 0.03 in0.8 mm 0.36 in9.1 mm 0.13 in3.3 mm
08:15 AM 74.6°F23.7°C 72.8°F22.7°C 94% 8.0 mph ESE12.9 kmh ESE 11.0 mph17.7 kmh 29.69 in1005.4 mb 0.00 in0.0 mm 0.00 in0.0 mm 0.10 in2.5 mm
08:10 AM 74.7°F23.7°C 72.9°F22.7°C 94% 1.0 mph SE1.6 kmh SE 9.0 mph14.5 kmh 29.69 in1005.4 mb 0.00 in0.0 mm 0.00 in0.0 mm 0.10 in2.5 mm
08:05 AM 74.7°F23.7°C 72.9°F22.7°C 94% 4.0 mph ESE6.4 kmh ESE 13.0 mph20.9 kmh 29.69 in1005.4 mb 0.00 in0.0 mm 0.00 in0.0 mm 0.10 in2.5 mm
08:00 AM 74.8°F23.8°C 73.0°F22.8°C 94% Calm Calm 12.0 mph19.3 kmh 29.69 in1005.4 mb 0.00 in0.0 mm 0.00 in0.0 mm 0.10 in2.5 mm
07:55 AM 74.9°F23.8°C 72.7°F22.6°C 93% 9.0 mph SE14.5 kmh SE 14.0 mph22.5 kmh 29.69 in1005.4 mb 0.00 in0.0 mm 0.00 in0.0 mm 0.10 in2.5 mm
07:50 AM 74.9°F23.8°C 72.7°F22.6°C 93% 5.0 mph SE8.0 kmh SE 15.0 mph24.1 kmh 29.69 in1005.4 mb 0.00 in0.0 mm 0.00 in0.0 mm 0.10 in2.5 mm
07:45 AM 75.0°F23.9°C 72.8°F22.7°C 93% 8.0 mph SE12.9 kmh SE 15.0 mph24.1 kmh 29.68 in1005.1 mb 0.00 in0.0 mm 0.00 in0.0 mm 0.10 in2.5 mm
07:40 AM 75.0°F23.9°C 72.8°F22.7°C 93% 13.0 mph E20.9 kmh E 14.0 mph22.5 kmh 29.68 in1005.1 mb 0.00 in0.0 mm 0.00 in0.0 mm 0.10 in2.5 mm
07:35 AM 74.9°F23.8°C 72.7°F22.6°C 93% 2.0 mph SE3.2 kmh SE 15.0 mph24.1 kmh 29.68 in1005.1 mb 0.00 in0.0 mm 0.00 in0.0 mm 0.10 in2.5 mm
07:30 AM 74.8°F23.8°C 72.6°F22.6°C 93% 1.0 mph ESE1.6 kmh ESE 13.0 mph20.9 kmh 29.68 in1005.1 mb 0.00 in0.0 mm 0.00 in0.0 mm 0.10 in2.5 mm
07:25 AM 74.7°F23.7°C 72.6°F22.6°C 93% 8.0 mph E12.9 kmh E 14.0 mph22.5 kmh 29.68 in1005.1 mb 0.00 in0.0 mm 0.00 in0.0 mm 0.10 in2.5 mm
07:20 AM 74.7°F23.7°C 72.6°F22.6°C 93% 7.0 mph SE11.3 kmh SE 14.0 mph22.5 kmh 29.68 in1005.1 mb 0.00 in0.0 mm 0.00 in0.0 mm 0.10 in2.5 mm
07:15 AM 74.6°F23.7°C 72.5°F22.5°C 93% 5.0 mph SE8.0 kmh SE 18.0 mph29.0 kmh 29.68 in1005.1 mb 0.00 in0.0 mm 0.00 in0.0 mm 0.10 in2.5 mm
07:10 AM 74.6°F23.7°C 72.5°F22.5°C 93% 4.0 mph ESE6.4 kmh ESE 15.0 mph24.1 kmh 29.68 in1005.1 mb 0.00 in0.0 mm 0.00 in0.0 mm 0.10 in2.5 mm
07:05 AM 74.6°F23.7°C 72.5°F22.5°C 93% 10.0 mph SE16.1 kmh SE 15.0 mph24.1 kmh 29.68 in1005.1 mb 0.00 in0.0 mm 0.00 in0.0 mm 0.10 in2.5 mm
07:00 AM 74.6°F23.7°C 72.5°F22.5°C 93% 9.0 mph SE14.5 kmh SE 14.0 mph22.5 kmh 29.68 in1005.1 mb 0.00 in0.0 mm 0.00 in0.0 mm 0.10 in2.5 mm
06:55 AM 74.5°F23.6°C 72.4°F22.4°C 93% 2.0 mph SE3.2 kmh SE 12.0 mph19.3 kmh 29.68 in1005.1 mb 0.00 in0.0 mm 0.00 in0.0 mm 0.10 in2.5 mm
06:50 AM 74.3°F23.5°C 72.2°F22.3°C 93% 3.0 mph ESE4.8 kmh ESE 13.0 mph20.9 kmh 29.68 in1005.1 mb 0.00 in0.0 mm 0.00 in0.0 mm 0.10 in2.5 mm
06:45 AM 74.3°F23.5°C 72.2°F22.3°C 93% 7.0 mph E11.3 kmh E 14.0 mph22.5 kmh 29.68 in1005.1 mb 0.00 in0.0 mm 0.00 in0.0 mm 0.10 in2.5 mm
06:40 AM 74.1°F23.4°C 72.0°F22.2°C 93% 7.0 mph ESE11.3 kmh ESE 17.0 mph27.4 kmh 29.68 in1005.1 mb 0.00 in0.0 mm 0.00 in0.0 mm 0.10 in2.5 mm
06:35 AM 74.1°F23.4°C 72.0°F22.2°C 93% 5.0 mph ESE8.0 kmh ESE 14.0 mph22.5 kmh 29.68 in1005.1 mb 0.00 in0.0 mm 0.00 in0.0 mm 0.10 in2.5 mm
06:30 AM 74.2°F23.4°C 72.1°F22.3°C 93% 4.0 mph E6.4 kmh E 12.0 mph19.3 kmh 29.68 in1005.1 mb 0.00 in0.0 mm 0.00 in0.0 mm 0.10 in2.5 mm
06:25 AM 74.2°F23.4°C 72.1°F22.3°C 93% 4.0 mph SSE6.4 kmh SSE 17.0 mph27.4 kmh 29.68 in1005.1 mb 0.00 in0.0 mm 0.00 in0.0 mm 0.10 in2.5 mm
06:20 AM 74.1°F23.4°C 72.0°F22.2°C 93% 12.0 mph E19.3 kmh E 16.0 mph25.7 kmh 29.68 in1005.1 mb 0.00 in0.0 mm 0.00 in0.0 mm 0.10 in2.5 mm
06:15 AM 74.1°F23.4°C 72.0°F22.2°C 93% 17.0 mph E27.4 kmh E 17.0 mph27.4 kmh 29.68 in1005.1 mb 0.00 in0.0 mm 0.00 in0.0 mm 0.10 in2.5 mm
06:10 AM 74.1°F23.4°C 72.0°F22.2°C 93% 6.0 mph SE9.7 kmh SE 15.0 mph24.1 kmh 29.68 in1005.1 mb 0.00 in0.0 mm 0.00 in0.0 mm 0.10 in2.5 mm
06:05 AM 74.1°F23.4°C 72.0°F22.2°C 93% 9.0 mph SE14.5 kmh SE 18.0 mph29.0 kmh 29.68 in1005.1 mb 0.00 in0.0 mm 0.00 in0.0 mm 0.10 in2.5 mm
06:00 AM 74.0°F23.3°C 71.9°F22.2°C 93% 11.0 mph ESE17.7 kmh ESE 17.0 mph27.4 kmh 29.68 in1005.1 mb 0.00 in0.0 mm 0.00 in0.0 mm 0.10 in2.5 mm
05:55 AM 74.0°F23.3°C 71.9°F22.2°C 93% 2.0 mph SE3.2 kmh SE 14.0 mph22.5 kmh 29.68 in1005.1 mb 0.00 in0.0 mm 0.00 in0.0 mm 0.10 in2.5 mm
05:50 AM 74.0°F23.3°C 71.9°F22.2°C 93% 9.0 mph SE14.5 kmh SE 14.0 mph22.5 kmh 29.68 in1005.1 mb 0.00 in0.0 mm 0.00 in0.0 mm 0.10 in2.5 mm
05:45 AM 73.9°F23.3°C 72.1°F22.3°C 94% 4.0 mph ESE6.4 kmh ESE 19.0 mph30.6 kmh 29.68 in1005.1 mb 0.00 in0.0 mm 0.00 in0.0 mm 0.10 in2.5 mm
05:40 AM 73.8°F23.2°C 72.0°F22.2°C 94% 3.0 mph ESE4.8 kmh ESE 15.0 mph24.1 kmh 29.68 in1005.1 mb 0.00 in0.0 mm 0.00 in0.0 mm 0.10 in2.5 mm
05:35 AM 73.8°F23.2°C 72.0°F22.2°C 94% 8.0 mph SE12.9 kmh SE 15.0 mph24.1 kmh 29.68 in1005.1 mb 0.00 in0.0 mm 0.00 in0.0 mm 0.10 in2.5 mm
05:30 AM 73.8°F23.2°C 72.0°F22.2°C 94% 1.0 mph SE1.6 kmh SE 11.0 mph17.7 kmh 29.68 in1005.1 mb 0.00 in0.0 mm 0.00 in0.0 mm 0.10 in2.5 mm
05:25 AM 73.8°F23.2°C 72.0°F22.2°C 94% 5.0 mph E8.0 kmh E 15.0 mph24.1 kmh 29.68 in1005.1 mb 0.00 in0.0 mm 0.00 in0.0 mm 0.10 in2.5 mm
05:20 AM 73.8°F23.2°C 72.0°F22.2°C 94% 3.0 mph E4.8 kmh E 20.0 mph32.2 kmh 29.68 in1005.1 mb 0.00 in0.0 mm 0.00 in0.0 mm 0.10 in2.5 mm
05:15 AM 73.7°F23.2°C 71.9°F22.2°C 94% 8.0 mph SSE12.9 kmh SSE 20.0 mph32.2 kmh 29.68 in1005.1 mb 0.01 in0.3 mm 0.00 in0.0 mm 0.10 in2.5 mm
05:10 AM 73.7°F23.2°C 71.9°F22.2°C 94% Calm Calm 14.0 mph22.5 kmh 29.68 in1005.1 mb 0.01 in0.3 mm 0.00 in0.0 mm 0.10 in2.5 mm
05:05 AM 73.8°F23.2°C 72.0°F22.2°C 94% 6.0 mph E9.7 kmh E 13.0 mph20.9 kmh 29.68 in1005.1 mb 0.02 in0.5 mm 0.00 in0.0 mm 0.10 in2.5 mm
05:00 AM 73.8°F23.2°C 72.0°F22.2°C 94% 3.0 mph SE4.8 kmh SE 13.0 mph20.9 kmh 29.68 in1005.1 mb 0.02 in0.5 mm 0.00 in0.0 mm 0.10 in2.5 mm
04:55 AM 73.7°F23.2°C 72.2°F22.3°C 95% 2.0 mph E3.2 kmh E 13.0 mph20.9 kmh 29.68 in1005.1 mb 0.04 in1.0 mm 0.00 in0.0 mm 0.10 in2.5 mm
04:50 AM 73.6°F23.1°C 72.1°F22.3°C 95% 8.0 mph ESE12.9 kmh ESE 15.0 mph24.1 kmh 29.67 in1004.7 mb 0.06 in1.5 mm 0.00 in0.0 mm 0.10 in2.5 mm
04:45 AM 73.5°F23.1°C 72.0°F22.2°C 95% 6.0 mph SE9.7 kmh SE 16.0 mph25.7 kmh 29.68 in1005.1 mb 0.06 in1.5 mm 0.00 in0.0 mm 0.10 in2.5 mm
04:40 AM 73.5°F23.1°C 72.0°F22.2°C 95% 3.0 mph SE4.8 kmh SE 16.0 mph25.7 kmh 29.68 in1005.1 mb 0.06 in1.5 mm 0.00 in0.0 mm 0.10 in2.5 mm
04:35 AM 73.4°F23.0°C 71.9°F22.2°C 95% 12.0 mph ESE19.3 kmh ESE 16.0 mph25.7 kmh 29.68 in1005.1 mb 0.06 in1.5 mm 0.00 in0.0 mm 0.10 in2.5 mm
04:30 AM 73.4°F23.0°C 71.9°F22.2°C 95% 5.0 mph SE8.0 kmh SE 16.0 mph25.7 kmh 29.68 in1005.1 mb 0.06 in1.5 mm 0.00 in0.0 mm 0.10 in2.5 mm
04:25 AM 73.4°F23.0°C 71.9°F22.2°C 95% 5.0 mph SE8.0 kmh SE 15.0 mph24.1 kmh 29.68 in1005.1 mb 0.06 in1.5 mm 0.00 in0.0 mm 0.10 in2.5 mm
04:20 AM 73.4°F23.0°C 71.9°F22.2°C 95% 7.0 mph ESE11.3 kmh ESE 17.0 mph27.4 kmh 29.68 in1005.1 mb 0.07 in1.8 mm 0.00 in0.0 mm 0.10 in2.5 mm
04:15 AM 73.4°F23.0°C 71.9°F22.2°C 95% 10.0 mph ESE16.1 kmh ESE 16.0 mph25.7 kmh 29.68 in1005.1 mb 0.07 in1.8 mm 0.00 in0.0 mm 0.10 in2.5 mm
04:10 AM 73.4°F23.0°C 71.9°F22.2°C 95% 14.0 mph E22.5 kmh E 14.0 mph22.5 kmh 29.69 in1005.4 mb 0.07 in1.8 mm 0.12 in3.0 mm 0.10 in2.5 mm
04:05 AM 73.4°F23.0°C 71.9°F22.2°C 95% 5.0 mph SE8.0 kmh SE 14.0 mph22.5 kmh 29.69 in1005.4 mb 0.06 in1.5 mm 0.00 in0.0 mm 0.09 in2.3 mm
04:00 AM 73.5°F23.1°C 72.0°F22.2°C 95% 2.0 mph ESE3.2 kmh ESE 13.0 mph20.9 kmh 29.70 in1005.8 mb 0.06 in1.5 mm 0.00 in0.0 mm 0.09 in2.3 mm
03:55 AM 73.5°F23.1°C 72.0°F22.2°C 95% Calm Calm 13.0 mph20.9 kmh 29.70 in1005.8 mb 0.07 in1.8 mm 0.24 in6.1 mm 0.09 in2.3 mm
03:50 AM 73.6°F23.1°C 72.1°F22.3°C 95% 4.0 mph ESE6.4 kmh ESE 14.0 mph22.5 kmh 29.70 in1005.8 mb 0.05 in1.3 mm 0.12 in3.0 mm 0.07 in1.8 mm
03:45 AM 73.6°F23.1°C 72.1°F22.3°C 95% 10.0 mph SSE16.1 kmh SSE 12.0 mph19.3 kmh 29.70 in1005.8 mb 0.04 in1.0 mm 0.00 in0.0 mm 0.06 in1.5 mm
03:40 AM 73.5°F23.1°C 72.0°F22.2°C 95% 5.0 mph SE8.0 kmh SE 12.0 mph19.3 kmh 29.70 in1005.8 mb 0.04 in1.0 mm 0.00 in0.0 mm 0.06 in1.5 mm
03:35 AM 73.5°F23.1°C 72.0°F22.2°C 95% 1.0 mph SE1.6 kmh SE 10.0 mph16.1 kmh 29.70 in1005.8 mb 0.04 in1.0 mm 0.00 in0.0 mm 0.06 in1.5 mm
03:30 AM 73.5°F23.1°C 72.0°F22.2°C 95% 4.0 mph SE6.4 kmh SE 16.0 mph25.7 kmh 29.71 in1006.1 mb 0.04 in1.0 mm 0.00 in0.0 mm 0.06 in1.5 mm
03:25 AM 73.5°F23.1°C 72.0°F22.2°C 95% 1.0 mph ESE1.6 kmh ESE 14.0 mph22.5 kmh 29.71 in1006.1 mb 0.04 in1.0 mm 0.00 in0.0 mm 0.06 in1.5 mm
03:20 AM 73.5°F23.1°C 72.0°F22.2°C 95% 3.0 mph E4.8 kmh E 14.0 mph22.5 kmh 29.70 in1005.8 mb 0.04 in1.0 mm 0.12 in3.0 mm 0.06 in1.5 mm
03:15 AM 73.5°F23.1°C 72.0°F22.2°C 95% 2.0 mph ESE3.2 kmh ESE 12.0 mph19.3 kmh 29.70 in1005.8 mb 0.03 in0.8 mm 0.00 in0.0 mm 0.05 in1.3 mm
03:10 AM 73.5°F23.1°C 72.0°F22.2°C 95% 3.0 mph SE4.8 kmh SE 18.0 mph29.0 kmh 29.71 in1006.1 mb 0.03 in0.8 mm 0.12 in3.0 mm 0.05 in1.3 mm
03:05 AM 73.5°F23.1°C 72.0°F22.2°C 95% 5.0 mph E8.0 kmh E 16.0 mph25.7 kmh 29.71 in1006.1 mb 0.02 in0.5 mm 0.00 in0.0 mm 0.04 in1.0 mm
03:00 AM 73.5°F23.1°C 72.0°F22.2°C 95% Calm Calm 11.0 mph17.7 kmh 29.72 in1006.4 mb 0.02 in0.5 mm 0.00 in0.0 mm 0.04 in1.0 mm
02:55 AM 73.5°F23.1°C 72.0°F22.2°C 95% 10.0 mph E16.1 kmh E 15.0 mph24.1 kmh 29.72 in1006.4 mb 0.02 in0.5 mm 0.24 in6.1 mm 0.04 in1.0 mm
02:50 AM 73.5°F23.1°C 72.0°F22.2°C 95% 1.0 mph ESE1.6 kmh ESE 12.0 mph19.3 kmh 29.72 in1006.4 mb 0.00 in0.0 mm 0.00 in0.0 mm 0.02 in0.5 mm
02:45 AM 73.5°F23.1°C 72.0°F22.2°C 95% 9.0 mph E14.5 kmh E 11.0 mph17.7 kmh 29.73 in1006.8 mb 0.00 in0.0 mm 0.00 in0.0 mm 0.02 in0.5 mm
02:40 AM 73.6°F23.1°C 72.1°F22.3°C 95% Calm Calm 14.0 mph22.5 kmh 29.73 in1006.8 mb 0.00 in0.0 mm 0.00 in0.0 mm 0.02 in0.5 mm
02:35 AM 73.5°F23.1°C 72.0°F22.2°C 95% 6.0 mph E9.7 kmh E 13.0 mph20.9 kmh 29.73 in1006.8 mb 0.00 in0.0 mm 0.00 in0.0 mm 0.02 in0.5 mm
02:30 AM 73.5°F23.1°C 72.0°F22.2°C 95% 3.0 mph ESE4.8 kmh ESE 11.0 mph17.7 kmh 29.73 in1006.8 mb 0.00 in0.0 mm 0.00 in0.0 mm 0.02 in0.5 mm
02:25 AM 73.5°F23.1°C 72.0°F22.2°C 95% 12.0 mph ESE19.3 kmh ESE 14.0 mph22.5 kmh 29.73 in1006.8 mb 0.00 in0.0 mm 0.00 in0.0 mm 0.02 in0.5 mm
02:20 AM 73.5°F23.1°C 72.0°F22.2°C 95% 2.0 mph E3.2 kmh E 14.0 mph22.5 kmh 29.73 in1006.8 mb 0.00 in0.0 mm 0.00 in0.0 mm 0.02 in0.5 mm
02:15 AM 73.5°F23.1°C 72.0°F22.2°C 95% 5.0 mph ESE8.0 kmh ESE 13.0 mph20.9 kmh 29.74 in1007.1 mb 0.00 in0.0 mm 0.00 in0.0 mm 0.02 in0.5 mm
02:10 AM 73.4°F23.0°C 71.9°F22.2°C 95% 3.0 mph E4.8 kmh E 12.0 mph19.3 kmh 29.74 in1007.1 mb 0.00 in0.0 mm 0.00 in0.0 mm 0.02 in0.5 mm
02:05 AM 73.3°F22.9°C 71.8°F22.1°C 95% 9.0 mph E14.5 kmh E 13.0 mph20.9 kmh 29.74 in1007.1 mb 0.00 in0.0 mm 0.00 in0.0 mm 0.02 in0.5 mm
02:00 AM 73.2°F22.9°C 71.7°F22.1°C 95% 5.0 mph E8.0 kmh E 14.0 mph22.5 kmh 29.74 in1007.1 mb 0.00 in0.0 mm 0.00 in0.0 mm 0.02 in0.5 mm
01:55 AM 73.0°F22.8°C 71.5°F21.9°C 95% 3.0 mph E4.8 kmh E 12.0 mph19.3 kmh 29.75 in1007.5 mb 0.00 in0.0 mm 0.00 in0.0 mm 0.02 in0.5 mm
01:50 AM 73.0°F22.8°C 71.5°F21.9°C 95% 3.0 mph E4.8 kmh E 15.0 mph24.1 kmh 29.75 in1007.5 mb 0.00 in0.0 mm 0.00 in0.0 mm 0.02 in0.5 mm
01:45 AM 72.9°F22.7°C 71.4°F21.9°C 95% Calm Calm 14.0 mph22.5 kmh 29.75 in1007.5 mb 0.00 in0.0 mm 0.00 in0.0 mm 0.02 in0.5 mm
01:40 AM 72.7°F22.6°C 71.2°F21.8°C 95% 6.0 mph E9.7 kmh E 10.0 mph16.1 kmh 29.76 in1007.8 mb 0.00 in0.0 mm 0.00 in0.0 mm 0.02 in0.5 mm
01:35 AM 72.6°F22.6°C 71.1°F21.7°C 95% 5.0 mph E8.0 kmh E 9.0 mph14.5 kmh 29.76 in1007.8 mb 0.01 in0.3 mm 0.00 in0.0 mm 0.02 in0.5 mm
01:30 AM 72.5°F22.5°C 71.0°F21.7°C 95% 7.0 mph E11.3 kmh E 11.0 mph17.7 kmh 29.76 in1007.8 mb 0.01 in0.3 mm 0.00 in0.0 mm 0.02 in0.5 mm
01:25 AM 72.4°F22.4°C 71.2°F21.8°C 96% 1.0 mph E1.6 kmh E 10.0 mph16.1 kmh 29.76 in1007.8 mb 0.01 in0.3 mm 0.00 in0.0 mm 0.02 in0.5 mm
01:20 AM 72.4°F22.4°C 71.2°F21.8°C 96% 1.0 mph ESE1.6 kmh ESE 12.0 mph19.3 kmh 29.76 in1007.8 mb 0.01 in0.3 mm 0.00 in0.0 mm 0.02 in0.5 mm
01:15 AM 72.3°F22.4°C 71.1°F21.7°C 96% 6.0 mph E9.7 kmh E 15.0 mph24.1 kmh 29.76 in1007.8 mb 0.02 in0.5 mm 0.00 in0.0 mm 0.02 in0.5 mm
01:10 AM 72.2°F22.3°C 71.0°F21.7°C 96% Calm Calm 11.0 mph17.7 kmh 29.77 in1008.1 mb 0.02 in0.5 mm 0.00 in0.0 mm 0.02 in0.5 mm
01:05 AM 72.2°F22.3°C 71.0°F21.7°C 96% 1.0 mph E1.6 kmh E 10.0 mph16.1 kmh 29.77 in1008.1 mb 0.02 in0.5 mm 0.00 in0.0 mm 0.02 in0.5 mm
01:00 AM 72.1°F22.3°C 70.9°F21.6°C 96% 1.0 mph ESE1.6 kmh ESE 11.0 mph17.7 kmh 29.77 in1008.1 mb 0.02 in0.5 mm 0.00 in0.0 mm 0.02 in0.5 mm
12:55 AM 72.0°F22.2°C 70.8°F21.6°C 96% 7.0 mph E11.3 kmh E 11.0 mph17.7 kmh 29.78 in1008.5 mb 0.02 in0.5 mm 0.00 in0.0 mm 0.02 in0.5 mm
12:50 AM 72.0°F22.2°C 70.8°F21.6°C 96% 9.0 mph E14.5 kmh E 13.0 mph20.9 kmh 29.78 in1008.5 mb 0.02 in0.5 mm 0.00 in0.0 mm 0.02 in0.5 mm
12:45 AM 72.0°F22.2°C 70.8°F21.6°C 96% 5.0 mph ESE8.0 kmh ESE 10.0 mph16.1 kmh 29.78 in1008.5 mb 0.02 in0.5 mm 0.00 in0.0 mm 0.02 in0.5 mm
12:40 AM 71.9°F22.2°C 70.7°F21.5°C 96% Calm Calm 10.0 mph16.1 kmh 29.79 in1008.8 mb 0.02 in0.5 mm 0.00 in0.0 mm 0.02 in0.5 mm
12:35 AM 71.8°F22.1°C 70.6°F21.4°C 96% 1.0 mph E1.6 kmh E 14.0 mph22.5 kmh 29.79 in1008.8 mb 0.02 in0.5 mm 0.12 in3.0 mm 0.02 in0.5 mm
12:30 AM 71.7°F22.1°C 70.5°F21.4°C 96% 5.0 mph E8.0 kmh E 11.0 mph17.7 kmh 29.79 in1008.8 mb 0.01 in0.3 mm 0.00 in0.0 mm 0.01 in0.3 mm
12:25 AM 71.6°F22.0°C 70.4°F21.3°C 96% Calm Calm 14.0 mph22.5 kmh 29.79 in1008.8 mb 0.01 in0.3 mm 0.00 in0.0 mm 0.01 in0.3 mm
12:20 AM 71.5°F21.9°C 70.0°F21.1°C 95% Calm Calm 12.0 mph19.3 kmh 29.80 in1009.1 mb 0.01 in0.3 mm 0.00 in0.0 mm 0.01 in0.3 mm
12:15 AM 71.5°F21.9°C 70.0°F21.1°C 95% 6.0 mph E9.7 kmh E 11.0 mph17.7 kmh 29.80 in1009.1 mb 0.01 in0.3 mm 0.12 in3.0 mm 0.01 in0.3 mm
12:10 AM 71.4°F21.9°C 69.9°F21.1°C 95% 12.0 mph ENE19.3 kmh ENE 18.0 mph29.0 kmh 29.79 in1008.8 mb 0.00 in0.0 mm 0.00 in0.0 mm 0.00 in0.0 mm
12:05 AM 71.2°F21.8°C 69.7°F20.9°C 95% 1.0 mph E1.6 kmh E 13.0 mph20.9 kmh 29.80 in1009.1 mb 0.00 in0.0 mm 0.00 in0.0 mm 0.00 in0.0 mm